createdAt,value
2023-02-15T00:03:32.018Z,4.40
2023-02-15T00:07:40.659Z,4.30
2023-02-15T00:11:51.909Z,4.30
2023-02-15T00:16:08.207Z,4.30
2023-02-15T00:20:16.828Z,4.20
2023-02-15T00:24:25.457Z,4.20
2023-02-15T00:28:34.085Z,4.20
2023-02-15T00:32:42.672Z,4.20
2023-02-15T00:36:51.695Z,4.10
2023-02-15T00:41:02.450Z,4.20
2023-02-15T00:45:11.447Z,4.20
2023-02-15T00:49:20.006Z,4.20
2023-02-15T00:53:29.515Z,4.10
2023-02-15T00:57:38.100Z,4.10
2023-02-15T01:01:46.647Z,4.10
2023-02-15T01:05:55.247Z,4.00
2023-02-15T01:10:03.814Z,4.00
2023-02-15T01:14:12.554Z,4.00
2023-02-15T01:18:21.121Z,4.00
2023-02-15T01:22:29.700Z,4.00
2023-02-15T01:26:38.286Z,3.90
2023-02-15T01:30:47.029Z,3.80
2023-02-15T01:34:55.756Z,3.60
2023-02-15T01:39:04.426Z,3.60
2023-02-15T01:43:14.007Z,3.70
2023-02-15T01:51:36.465Z,3.60
2023-02-15T01:55:51.090Z,3.60
2023-02-15T02:00:03.434Z,3.60
2023-02-15T02:04:15.062Z,3.60
2023-02-15T02:08:23.637Z,3.60
2023-02-15T02:12:32.548Z,3.50
2023-02-15T02:17:06.802Z,3.50
2023-02-15T02:21:51.453Z,3.50
2023-02-15T02:26:08.863Z,3.40
2023-02-15T02:30:23.448Z,3.40
2023-02-15T02:34:43.903Z,3.50
2023-02-15T02:43:14.451Z,3.50
2023-02-15T02:47:31.854Z,3.40
2023-02-15T02:51:40.448Z,3.40
2023-02-15T02:55:52.095Z,3.30
2023-02-15T03:00:03.895Z,3.30
2023-02-15T03:04:21.285Z,3.30
2023-02-15T03:08:35.492Z,3.30
2023-02-15T03:12:44.308Z,3.30
2023-02-15T03:16:54.332Z,3.30
2023-02-15T03:21:04.847Z,3.30
2023-02-15T03:25:39.922Z,3.20
2023-02-15T03:29:54.177Z,3.20
2023-02-15T03:34:05.868Z,3.30
2023-02-15T03:38:17.509Z,3.30
2023-02-15T03:42:34.523Z,3.30
2023-02-15T03:46:46.222Z,3.30
2023-02-15T03:51:05.233Z,3.20
2023-02-15T03:55:13.877Z,3.10
2023-02-15T03:59:27.151Z,3.00
2023-02-15T04:03:44.433Z,3.00
2023-02-15T04:07:53.025Z,3.00
2023-02-15T04:12:01.641Z,3.00
2023-02-15T04:16:10.504Z,3.00
2023-02-15T04:20:37.094Z,3.00
2023-02-15T04:25:03.209Z,2.90
2023-02-15T04:29:11.781Z,2.90
2023-02-15T04:33:20.327Z,2.90
2023-02-15T04:37:28.961Z,2.90
2023-02-15T04:41:37.973Z,2.90
2023-02-15T04:45:52.949Z,2.90
2023-02-15T04:50:01.532Z,2.80
2023-02-15T04:54:10.044Z,2.80
2023-02-15T04:58:18.605Z,2.80
2023-02-15T05:02:27.318Z,2.80
2023-02-15T05:06:35.868Z,2.80
2023-02-15T05:10:44.530Z,2.80
2023-02-15T05:14:53.083Z,2.80
2023-02-15T05:19:01.781Z,2.80
2023-02-15T05:23:10.439Z,2.80
2023-02-15T05:27:36.938Z,2.70
2023-02-15T05:31:47.365Z,2.70
2023-02-15T05:35:56.014Z,2.60
2023-02-15T05:40:04.716Z,2.60
2023-02-15T05:44:13.276Z,2.50
2023-02-15T05:48:23.763Z,2.50
2023-02-15T05:52:32.346Z,2.50
2023-02-15T05:56:40.896Z,2.50
2023-02-15T06:00:49.456Z,2.50
2023-02-15T06:04:58.010Z,2.60
2023-02-15T06:09:06.581Z,2.60
2023-02-15T06:13:15.153Z,2.60
2023-02-15T06:17:23.715Z,2.50
2023-02-15T06:21:33.040Z,2.50
2023-02-15T06:25:41.655Z,2.50
2023-02-15T06:29:50.283Z,2.50
2023-02-15T06:34:00.546Z,2.50
2023-02-15T06:38:09.119Z,2.50
2023-02-15T06:42:19.154Z,2.50
2023-02-15T06:46:27.781Z,2.50
2023-02-15T06:50:37.037Z,2.50
2023-02-15T06:54:45.614Z,2.60
2023-02-15T06:58:54.422Z,2.60
2023-02-15T07:03:03.565Z,2.50
2023-02-15T07:07:13.257Z,2.50
2023-02-15T07:11:39.622Z,2.50
2023-02-15T07:15:49.594Z,2.50
2023-02-15T07:19:58.176Z,2.60
2023-02-15T07:24:07.040Z,2.60
2023-02-15T07:28:16.886Z,2.60
2023-02-15T07:32:25.509Z,2.60
2023-02-15T07:36:39.171Z,2.60
2023-02-15T07:40:47.924Z,2.70
2023-02-15T07:44:56.636Z,2.70
2023-02-15T07:49:06.357Z,2.70
2023-02-15T07:53:14.940Z,2.70
2023-02-15T07:57:26.411Z,2.80
2023-02-15T08:01:37.112Z,2.90
2023-02-15T08:05:47.029Z,3.00
2023-02-15T08:09:55.594Z,3.10
2023-02-15T08:14:12.875Z,3.20
2023-02-15T08:18:21.435Z,3.30
2023-02-15T08:22:30.654Z,3.40
2023-02-15T08:26:42.247Z,3.50
2023-02-15T08:30:50.793Z,3.50
2023-02-15T08:34:59.338Z,3.60
2023-02-15T08:39:09.162Z,3.70
2023-02-15T08:43:17.712Z,3.80
2023-02-15T08:47:26.289Z,4.00
2023-02-15T08:51:37.585Z,4.10
2023-02-15T08:55:54.281Z,4.20
2023-02-15T09:00:05.729Z,4.40
2023-02-15T09:04:16.605Z,4.50
2023-02-15T09:08:32.195Z,4.60
2023-02-15T09:12:47.298Z,4.80
2023-02-15T09:16:57.328Z,4.90
2023-02-15T09:21:08.341Z,5.10
2023-02-15T09:25:20.646Z,5.20
2023-02-15T09:29:36.197Z,5.40
2023-02-15T09:33:48.242Z,5.50
2023-02-15T09:37:58.326Z,5.60
2023-02-15T09:42:37.998Z,5.70
2023-02-15T09:47:01.642Z,5.70
2023-02-15T09:51:22.237Z,5.70
2023-02-15T09:55:52.196Z,5.80
2023-02-15T10:00:27.690Z,5.90
2023-02-15T10:04:39.387Z,6.00
2023-02-15T10:09:02.846Z,6.10
2023-02-15T10:13:26.299Z,6.20
2023-02-15T10:17:43.500Z,6.30
2023-02-15T10:22:08.913Z,6.40
2023-02-15T10:26:25.414Z,6.40
2023-02-15T10:30:37.266Z,6.50
2023-02-15T10:34:59.896Z,6.60
2023-02-15T10:39:42.812Z,6.70
2023-02-15T10:44:10.171Z,6.80
2023-02-15T10:48:42.644Z,6.90
2023-02-15T10:53:03.437Z,7.10
2023-02-15T10:57:43.582Z,7.30
2023-02-15T11:02:29.792Z,7.60
2023-02-15T11:06:44.219Z,7.90
2023-02-15T11:10:58.890Z,8.20
2023-02-15T11:15:20.882Z,8.40
2023-02-15T11:19:34.411Z,8.60
2023-02-15T11:23:45.822Z,8.80
2023-02-15T11:27:58.150Z,9.00
2023-02-15T11:32:29.313Z,9.20
2023-02-15T11:36:40.957Z,9.30
2023-02-15T11:40:57.206Z,9.30
2023-02-15T11:45:20.665Z,9.40
2023-02-15T11:49:34.957Z,9.30
2023-02-15T11:53:44.646Z,9.40
2023-02-15T11:58:05.331Z,9.40
2023-02-15T12:02:19.982Z,9.40
2023-02-15T12:06:34.308Z,9.50
2023-02-15T12:10:48.888Z,9.50
2023-02-15T12:14:59.616Z,9.60
2023-02-15T12:19:11.260Z,9.70
2023-02-15T12:23:21.177Z,9.80
2023-02-15T12:27:34.822Z,9.90
2023-02-15T12:31:49.203Z,10.00
2023-02-15T12:36:04.039Z,10.10
2023-02-15T12:40:31.309Z,10.20
2023-02-15T12:44:44.203Z,10.20
2023-02-15T12:49:10.960Z,10.20
2023-02-15T12:53:26.302Z,10.20
2023-02-15T12:57:38.019Z,10.20
2023-02-15T13:01:47.088Z,10.20
2023-02-15T13:06:10.408Z,10.20
2023-02-15T13:10:32.697Z,10.30
2023-02-15T13:14:49.416Z,10.30
2023-02-15T13:19:02.298Z,10.30
2023-02-15T13:23:36.558Z,10.40
2023-02-15T13:27:54.175Z,10.40
2023-02-15T13:32:06.439Z,10.40
2023-02-15T13:36:31.087Z,10.40
2023-02-15T13:40:45.809Z,10.40
2023-02-15T13:45:27.824Z,10.40
2023-02-15T13:49:54.414Z,10.50
2023-02-15T13:54:29.906Z,10.50
2023-02-15T13:58:58.206Z,10.60
2023-02-15T14:03:30.204Z,10.70
2023-02-15T14:07:56.808Z,10.70
2023-02-15T14:12:17.099Z,10.80
2023-02-15T14:16:57.308Z,10.90
2023-02-15T14:20:59.753Z,10.90
2023-02-15T14:25:31.024Z,10.80
2023-02-15T14:29:51.277Z,10.70
2023-02-15T14:34:00.104Z,10.70
2023-02-15T14:38:30.137Z,10.70
2023-02-15T14:43:02.526Z,10.70
2023-02-15T14:47:22.956Z,10.70
2023-02-15T14:51:47.977Z,10.70
2023-02-15T14:56:15.150Z,10.70
2023-02-15T15:00:32.720Z,10.60
2023-02-15T15:04:53.326Z,10.60
2023-02-15T15:09:04.962Z,10.60
2023-02-15T15:13:36.993Z,10.60
2023-02-15T15:18:08.798Z,10.50
2023-02-15T15:22:24.826Z,10.50
2023-02-15T15:26:36.583Z,10.50
2023-02-15T15:30:48.272Z,10.50
2023-02-15T15:35:05.916Z,10.50
2023-02-15T15:39:23.162Z,10.50
2023-02-15T15:44:10.648Z,10.50
2023-02-15T15:48:31.200Z,10.50
2023-02-15T15:52:40.759Z,10.50
2023-02-15T15:56:52.536Z,10.50
2023-02-15T16:01:10.126Z,10.50
2023-02-15T16:05:20.099Z,10.40
2023-02-15T16:09:29.309Z,10.30
2023-02-15T16:13:37.948Z,10.20
2023-02-15T16:17:48.847Z,10.20
2023-02-15T16:22:00.717Z,10.20
2023-02-15T16:26:26.764Z,10.10
2023-02-15T16:30:40.041Z,10.10
2023-02-15T16:35:04.207Z,10.10
2023-02-15T16:39:21.602Z,10.00
2023-02-15T16:43:32.725Z,9.80
2023-02-15T16:47:47.848Z,9.70
2023-02-15T16:51:59.922Z,9.60
2023-02-15T16:56:08.613Z,9.40
2023-02-15T17:00:26.084Z,9.30
2023-02-15T17:04:36.421Z,9.20
2023-02-15T17:08:46.138Z,9.20
2023-02-15T17:12:58.933Z,9.20
2023-02-15T17:17:10.587Z,9.10
2023-02-15T17:21:24.580Z,9.00
2023-02-15T17:25:39.222Z,8.90
2023-02-15T17:29:58.774Z,8.90
2023-02-15T17:34:07.732Z,8.90
2023-02-15T17:38:23.044Z,8.80
2023-02-15T17:42:34.889Z,8.80
2023-02-15T17:46:44.673Z,8.80
2023-02-15T17:50:53.912Z,8.80
2023-02-15T17:55:22.960Z,8.80
2023-02-15T17:59:31.529Z,8.80
2023-02-15T18:04:06.530Z,8.70
2023-02-15T18:08:38.440Z,8.80
2023-02-15T18:12:47.013Z,8.70
2023-02-15T18:16:56.171Z,8.70
2023-02-15T18:21:05.128Z,8.70
2023-02-15T18:25:18.783Z,8.70
2023-02-15T18:29:27.433Z,8.60
2023-02-15T18:33:39.037Z,8.60
2023-02-15T18:37:47.946Z,8.50
2023-02-15T18:41:56.508Z,8.50
2023-02-15T18:46:05.850Z,8.50
2023-02-15T18:50:15.952Z,8.40
2023-02-15T18:54:25.939Z,8.40
2023-02-15T18:58:34.510Z,8.40
2023-02-15T19:02:43.108Z,8.40
2023-02-15T19:06:51.889Z,8.40
2023-02-15T19:11:01.775Z,8.40
2023-02-15T19:15:25.069Z,8.40
2023-02-15T19:19:33.649Z,8.30
2023-02-15T19:23:42.211Z,8.20
2023-02-15T19:27:51.329Z,8.10
2023-02-15T19:32:00.021Z,8.10
2023-02-15T19:36:11.621Z,8.00
2023-02-15T19:40:26.490Z,8.00
2023-02-15T19:44:35.134Z,7.90
2023-02-15T19:48:43.706Z,7.80
2023-02-15T19:52:52.717Z,7.70
2023-02-15T19:57:02.198Z,7.70
2023-02-15T20:01:10.863Z,7.60
2023-02-15T20:05:19.942Z,7.60
2023-02-15T20:09:31.414Z,7.70
2023-02-15T20:13:40.560Z,7.60
2023-02-15T20:17:49.848Z,7.60
2023-02-15T20:21:59.246Z,7.50
2023-02-15T20:26:18.468Z,7.40
2023-02-15T20:30:32.090Z,7.40
2023-02-15T20:34:40.785Z,7.30
2023-02-15T20:38:49.863Z,7.30
2023-02-15T20:42:58.565Z,7.20
2023-02-15T20:47:07.199Z,7.20
2023-02-15T20:51:20.942Z,7.20
2023-02-15T20:55:31.950Z,7.20
2023-02-15T20:59:41.440Z,7.20
2023-02-15T21:03:50.179Z,7.10
2023-02-15T21:07:59.073Z,7.00
2023-02-15T21:12:09.549Z,6.90
2023-02-15T21:16:18.603Z,6.90
2023-02-15T21:20:28.677Z,6.90
2023-02-15T21:24:37.395Z,6.80
2023-02-15T21:28:46.097Z,6.70
2023-02-15T21:32:54.821Z,6.70
2023-02-15T21:37:03.445Z,6.60
2023-02-15T21:41:41.083Z,6.60
2023-02-15T21:46:07.296Z,6.60
2023-02-15T21:50:36.042Z,6.50
2023-02-15T21:54:50.473Z,6.40
2023-02-15T21:58:59.027Z,6.40
2023-02-15T22:03:07.579Z,6.40
2023-02-15T22:07:20.367Z,6.30
2023-02-15T22:11:31.895Z,6.20
2023-02-15T22:15:41.784Z,6.10
2023-02-15T22:19:51.955Z,6.10
2023-02-15T22:24:00.521Z,6.20
2023-02-15T22:28:13.769Z,6.20
2023-02-15T22:32:25.602Z,6.10
2023-02-15T22:36:34.366Z,6.10
2023-02-15T22:40:43.057Z,6.10
2023-02-15T22:44:53.184Z,6.00
2023-02-15T22:49:01.731Z,6.00
2023-02-15T22:53:10.828Z,6.00
2023-02-15T22:57:33.305Z,6.00
2023-02-15T23:01:42.404Z,6.00
2023-02-15T23:05:51.699Z,6.00
2023-02-15T23:10:00.269Z,5.90
2023-02-15T23:14:28.958Z,5.90
2023-02-15T23:18:40.664Z,5.90
2023-02-15T23:22:50.099Z,5.90
2023-02-15T23:27:00.771Z,5.90
2023-02-15T23:31:18.344Z,5.80
2023-02-15T23:35:26.983Z,5.70
2023-02-15T23:39:53.181Z,5.70
2023-02-15T23:44:04.464Z,5.60
2023-02-15T23:48:33.239Z,5.60
2023-02-15T23:52:41.832Z,5.60
2023-02-15T23:56:55.902Z,5.50
